Glendon, Canada
Current Conditions -  °F | °C
As of 7:00 AM on Friday 31 Oct 2014 (Local Time) from CYOD Reporting Station
Overcast Overcast  
Wind Chill: 28°   Ceiling: 1300
Heat Index: 36°   Visibility: 15mi
Dew Point: 30°   Wind: 10mph
Humidity: 81%   Direction: 150°SSE
Pressure: 29.82"   Gusts: NA
Location:  54.25°N, 111.15°W
Report Text: CYOD 311300Z 15009KT 15SM OVC013 02/M01 A2982 RMK SC8 SLP123
Loading
Personal Weather Stations






























Interactive Weather Map
Tropical Storm Tracking
New forecast layout! Learn more

10-Day Weather Forecast

Advertisements
Track Severe Weather on mobile